INDIA METEOROLOGICAL DEPARTMENT, R.M.C. NEW DELHI
Dated:22 - 11 - 2017
METARS OF ALTERNATE AIRPORTS
Delhi      
VIDP 220830Z 30010KT 4000 HZ NSC 25/02 Q1014 NOSIG=
Amritsar   
VIAR 220830Z 30010KT 3000 HZ NSC 24/10 Q1015 NOSIG=
Lucknow    
VILK 220830Z 28005KT 3000 HZ NSC 25/10 Q1012 NOSIG=
Jaipur     
VIJP 220830Z 34006KT 3000 HZ NSC 24/M06 Q1016 BECMG 5000 HZ=
Ahmedabad  
VAAH 220830Z 36006KT 5000 FU NSC 30/12 Q1012 NOSIG=
Udaipur    
VAUD 220800Z 06003KT 5000 HZ NSC 25/05 Q1016 NOSIG=
Mumbai     
VABB 220830Z 29009KT 3000 FU FEW020 35/20 Q1009 NOSIG=